sensor_id;sensor_type;location;lat;lon;timestamp;pressure;altitude;pressure_sealevel;temperature;humidity
16120;BME280;12670;53.502;10.252;2023-02-13T00:01:09;103430.19;;;8.89;100.00
16120;BME280;12670;53.502;10.252;2023-02-13T00:04:12;103429.34;;;8.91;100.00
16120;BME280;12670;53.502;10.252;2023-02-13T00:07:14;103431.03;;;8.85;100.00
16120;BME280;12670;53.502;10.252;2023-02-13T00:10:17;103432.81;;;8.89;100.00
16120;BME280;12670;53.502;10.252;2023-02-13T00:13:20;103430.22;;;8.92;100.00
16120;BME280;12670;53.502;10.252;2023-02-13T00:16:24;103429.34;;;8.91;100.00
16120;BME280;12670;53.502;10.252;2023-02-13T00:19:27;103431.94;;;8.87;100.00
16120;BME280;12670;53.502;10.252;2023-02-13T00:22:29;103432.81;;;8.89;100.00
16120;BME280;12670;53.502;10.252;2023-02-13T00:25:32;103428.41;;;8.88;100.00
16120;BME280;12670;53.502;10.252;2023-02-13T00:28:35;103423.94;;;8.80;100.00
16120;BME280;12670;53.502;10.252;2023-02-13T00:31:39;103425.72;;;8.85;100.00
16120;BME280;12670;53.502;10.252;2023-02-13T00:34:42;103421.34;;;8.90;100.00
16120;BME280;12670;53.502;10.252;2023-02-13T00:37:45;103426.66;;;8.87;100.00
16120;BME280;12670;53.502;10.252;2023-02-13T00:40:47;103417.78;;;8.81;100.00
16120;BME280;12670;53.502;10.252;2023-02-13T00:43:50;103418.72;;;8.90;100.00
16120;BME280;12670;53.502;10.252;2023-02-13T00:46:54;103423.13;;;8.91;100.00
16120;BME280;12670;53.502;10.252;2023-02-13T00:49:56;103419.53;;;8.84;100.00
16120;BME280;12670;53.502;10.252;2023-02-13T00:52:59;103425.72;;;8.85;100.00
16120;BME280;12670;53.502;10.252;2023-02-13T00:56:36;103420.38;;;8.77;100.00
16120;BME280;12670;53.502;10.252;2023-02-13T00:59:38;103422.19;;;8.82;100.00
16120;BME280;12670;53.502;10.252;2023-02-13T01:02:42;103419.59;;;8.89;100.00
16120;BME280;12670;53.502;10.252;2023-02-13T01:05:45;103416.94;;;8.86;100.00
16120;BME280;12670;53.502;10.252;2023-02-13T01:08:48;103417.78;;;8.83;100.00
16120;BME280;12670;53.502;10.252;2023-02-13T01:11:50;103405.47;;;8.87;100.00
16120;BME280;12670;53.502;10.252;2023-02-13T01:14:53;103409.88;;;8.86;100.00
16120;BME280;12670;53.502;10.252;2023-02-13T01:17:57;103408.03;;;8.79;100.00
16120;BME280;12670;53.502;10.252;2023-02-13T01:21:03;103412.44;;;8.78;100.00
16120;BME280;12670;53.502;10.252;2023-02-13T01:24:06;103407.19;;;8.80;100.00
16120;BME280;12670;53.502;10.252;2023-02-13T01:27:09;103406.16;;;8.66;100.00
16120;BME280;12670;53.502;10.252;2023-02-13T01:30:13;103401.75;;;8.66;100.00
16120;BME280;12670;53.502;10.252;2023-02-13T01:33:17;103404.34;;;8.60;100.00
16120;BME280;12670;53.502;10.252;2023-02-13T01:36:20;103401.84;;;8.74;100.00
16120;BME280;12670;53.502;10.252;2023-02-13T01:39:22;103407.09;;;8.69;100.00
16120;BME280;12670;53.502;10.252;2023-02-13T01:42:27;103405.38;;;8.77;100.00
16120;BME280;12670;53.502;10.252;2023-02-13T01:45:30;103401.84;;;8.75;100.00
16120;BME280;12670;53.502;10.252;2023-02-13T01:48:34;103398.34;;;8.79;100.00
16120;BME280;12670;53.502;10.252;2023-02-13T01:51:37;103393.06;;;8.79;100.00
16120;BME280;12670;53.502;10.252;2023-02-13T01:54:41;103388.66;;;8.81;100.00
16120;BME280;12670;53.502;10.252;2023-02-13T01:57:48;103385.97;;;8.78;100.00
16120;BME280;12670;53.502;10.252;2023-02-13T02:00:52;103392.13;;;8.79;100.00
16120;BME280;12670;53.502;10.252;2023-02-13T02:03:58;103388.63;;;8.78;100.00
16120;BME280;12670;53.502;10.252;2023-02-13T02:07:04;103384.19;;;8.77;100.00
16120;BME280;12670;53.502;10.252;2023-02-13T02:10:10;103379.78;;;8.78;100.00
16120;BME280;12670;53.502;10.252;2023-02-13T02:13:16;103384.25;;;8.82;100.00
16120;BME280;12670;53.502;10.252;2023-02-13T02:16:19;103373.59;;;8.74;100.00
16120;BME280;12670;53.502;10.252;2023-02-13T02:19:35;103383.31;;;8.75;100.00
16120;BME280;12670;53.502;10.252;2023-02-13T02:26:27;103377.03;;;8.67;100.00
16120;BME280;12670;53.502;10.252;2023-02-13T02:30:04;103380.66;;;8.77;100.00
16120;BME280;12670;53.502;10.252;2023-02-13T02:33:24;103377.13;;;8.75;100.00
16120;BME280;12670;53.502;10.252;2023-02-13T02:36:37;103376.25;;;8.74;100.00
16120;BME280;12670;53.502;10.252;2023-02-13T02:39:47;103373.50;;;8.65;100.00
16120;BME280;12670;53.502;10.252;2023-02-13T02:43:07;103373.41;;;8.53;100.00
16120;BME280;12670;53.502;10.252;2023-02-13T02:46:19;103365.56;;;8.65;100.00
16120;BME280;12670;53.502;10.252;2023-02-13T02:49:26;103368.25;;;8.68;100.00
16120;BME280;12670;53.502;10.252;2023-02-13T02:52:56;103370.88;;;8.65;100.00
16120;BME280;12670;53.502;10.252;2023-02-13T02:56:10;103380.56;;;8.63;100.00
16120;BME280;12670;53.502;10.252;2023-02-13T02:59:15;103368.25;;;8.68;100.00
16120;BME280;12670;53.502;10.252;2023-02-13T03:02:38;103364.72;;;8.68;100.00
16120;BME280;12670;53.502;10.252;2023-02-13T03:06:02;103357.63;;;8.65;100.00
16120;BME280;12670;53.502;10.252;2023-02-13T03:09:19;103362.03;;;8.66;100.00
16120;BME280;12670;53.502;10.252;2023-02-13T03:12:43;103370.00;;;8.66;100.00
16120;BME280;12670;53.502;10.252;2023-02-13T03:16:10;103362.94;;;8.65;100.00
16120;BME280;12670;53.502;10.252;2023-02-13T03:19:42;103373.50;;;8.65;100.00
16120;BME280;12670;53.502;10.252;2023-02-13T03:23:11;103361.13;;;8.61;100.00
16120;BME280;12670;53.502;10.252;2023-02-13T03:26:34;103370.00;;;8.66;100.00
16120;BME280;12670;53.502;10.252;2023-02-13T03:29:58;103368.25;;;8.68;100.00
16120;BME280;12670;53.502;10.252;2023-02-13T03:33:18;103367.34;;;8.63;100.00
16120;BME280;12670;53.502;10.252;2023-02-13T03:36:39;103358.50;;;8.66;100.00
16120;BME280;12670;53.502;10.252;2023-02-13T03:40:07;103361.13;;;8.61;100.00
16120;BME280;12670;53.502;10.252;2023-02-13T03:43:13;103365.56;;;8.67;100.00
16120;BME280;12670;53.502;10.252;2023-02-13T03:46:18;103369.94;;;8.59;100.00
16120;BME280;12670;53.502;10.252;2023-02-13T03:49:23;103367.28;;;8.57;100.00
16120;BME280;12670;53.502;10.252;2023-02-13T03:52:48;103376.91;;;8.49;100.00
16120;BME280;12670;53.502;10.252;2023-02-13T03:55:54;103373.25;;;8.36;100.00
16120;BME280;12670;53.502;10.252;2023-02-13T03:59:19;103366.00;;;8.20;100.00
16120;BME280;12670;53.502;10.252;2023-02-13T04:02:27;103377.72;;;8.40;100.00
16120;BME280;12670;53.502;10.252;2023-02-13T04:05:36;103382.19;;;8.46;100.00
16120;BME280;12670;53.502;10.252;2023-02-13T04:08:41;103386.59;;;8.45;100.00
16120;BME280;12670;53.502;10.252;2023-02-13T04:11:51;103381.31;;;8.50;100.00
16120;BME280;12670;53.502;10.252;2023-02-13T04:14:58;103375.16;;;8.51;100.00
16120;BME280;12670;53.502;10.252;2023-02-13T04:18:08;103379.44;;;8.37;100.00
16120;BME280;12670;53.502;10.252;2023-02-13T04:21:12;103379.59;;;8.50;100.00
16120;BME280;12670;53.502;10.252;2023-02-13T04:24:14;103374.28;;;8.52;100.00
16120;BME280;12670;53.502;10.252;2023-02-13T04:27:19;103379.53;;;8.49;100.00
16120;BME280;12670;53.502;10.252;2023-02-13T04:30:21;103371.63;;;8.50;100.00
16120;BME280;12670;53.502;10.252;2023-02-13T04:33:24;103368.13;;;8.53;100.00
16120;BME280;12670;53.502;10.252;2023-02-13T04:36:27;103376.06;;;8.53;100.00
16120;BME280;12670;53.502;10.252;2023-02-13T04:39:29;103376.06;;;8.53;100.00
16120;BME280;12670;53.502;10.252;2023-02-13T04:42:33;103373.38;;;8.50;100.00
16120;BME280;12670;53.502;10.252;2023-02-13T04:45:36;103373.31;;;8.41;100.00
16120;BME280;12670;53.502;10.252;2023-02-13T04:48:38;103376.84;;;8.43;100.00
16120;BME280;12670;53.502;10.252;2023-02-13T04:51:41;103380.41;;;8.48;100.00
16120;BME280;12670;53.502;10.252;2023-02-13T04:54:44;103372.47;;;8.49;100.00
16120;BME280;12670;53.502;10.252;2023-02-13T04:57:51;103378.66;;;8.50;100.00
16120;BME280;12670;53.502;10.252;2023-02-13T05:00:53;103377.66;;;8.37;100.00
16120;BME280;12670;53.502;10.252;2023-02-13T05:03:56;103378.59;;;8.41;100.00
16120;BME280;12670;53.502;10.252;2023-02-13T05:06:59;103373.31;;;8.41;100.00
16120;BME280;12670;53.502;10.252;2023-02-13T05:10:02;103375.94;;;8.39;100.00
16120;BME280;12670;53.502;10.252;2023-02-13T05:13:06;103373.34;;;8.47;100.00
16120;BME280;12670;53.502;10.252;2023-02-13T05:16:08;103373.34;;;8.47;100.00
16120;BME280;12670;53.502;10.252;2023-02-13T05:19:11;103371.59;;;8.46;100.00
16120;BME280;12670;53.502;10.252;2023-02-13T05:22:14;103372.47;;;8.45;100.00
16120;BME280;12670;53.502;10.252;2023-02-13T05:25:35;103371.50;;;8.37;100.00
16120;BME280;12670;53.502;10.252;2023-02-13T05:28:39;103367.97;;;8.38;100.00
16120;BME280;12670;53.502;10.252;2023-02-13T05:31:59;103367.94;;;8.35;100.00
16120;BME280;12670;53.502;10.252;2023-02-13T05:35:03;103374.19;;;8.41;100.00
16120;BME280;12670;53.502;10.252;2023-02-13T05:38:05;103373.31;;;8.41;100.00
16120;BME280;12670;53.502;10.252;2023-02-13T05:41:08;103369.78;;;8.39;100.00
16120;BME280;12670;53.502;10.252;2023-02-13T05:44:15;103371.44;;;8.34;100.00
16120;BME280;12670;53.502;10.252;2023-02-13T05:47:18;103372.34;;;8.34;100.00
16120;BME280;12670;53.502;10.252;2023-02-13T05:50:21;103369.59;;;8.26;100.00
16120;BME280;12670;53.502;10.252;2023-02-13T05:53:24;103365.22;;;8.30;100.00
16120;BME280;12670;53.502;10.252;2023-02-13T05:56:27;103372.28;;;8.29;100.00
16120;BME280;12670;53.502;10.252;2023-02-13T05:59:31;103377.50;;;8.22;100.00
16120;BME280;12670;53.502;10.252;2023-02-13T06:02:33;103378.34;;;8.19;100.00
16120;BME280;12670;53.502;10.252;2023-02-13T06:05:36;103381.94;;;8.24;100.00
16120;BME280;12670;53.502;10.252;2023-02-13T06:08:39;103383.69;;;8.25;100.00
16120;BME280;12670;53.502;10.252;2023-02-13T06:11:42;103386.34;;;8.24;100.00
16120;BME280;12670;53.502;10.252;2023-02-13T06:14:45;103387.28;;;8.31;100.00
16120;BME280;12670;53.502;10.252;2023-02-13T06:17:48;103382.88;;;8.29;100.00
16120;BME280;12670;53.502;10.252;2023-02-13T06:20:51;103394.34;;;8.32;100.00
16120;BME280;12670;53.502;10.252;2023-02-13T06:23:53;103386.41;;;8.32;100.00
16120;BME280;12670;53.502;10.252;2023-02-13T06:26:56;103395.16;;;8.26;100.00
16120;BME280;12670;53.502;10.252;2023-02-13T06:30:00;103390.69;;;8.17;100.00
16120;BME280;12670;53.502;10.252;2023-02-13T06:33:03;103388.97;;;8.22;100.00
16120;BME280;12670;53.502;10.252;2023-02-13T06:36:06;103399.53;;;8.21;100.00
16120;BME280;12670;53.502;10.252;2023-02-13T06:39:09;103398.72;;;8.29;100.00
16120;BME280;12670;53.502;10.252;2023-02-13T06:42:12;103399.56;;;8.25;100.00
16120;BME280;12670;53.502;10.252;2023-02-13T06:45:16;103412.84;;;8.30;100.00
16120;BME280;12670;53.502;10.252;2023-02-13T06:48:18;103406.75;;;8.36;100.00
16120;BME280;12670;53.502;10.252;2023-02-13T06:51:21;103412.84;;;8.27;100.00
16120;BME280;12670;53.502;10.252;2023-02-13T06:54:23;103413.72;;;8.31;100.00
16120;BME280;12670;53.502;10.252;2023-02-13T06:57:46;103415.63;;;8.41;100.00
16120;BME280;12670;53.502;10.252;2023-02-13T07:00:51;103419.91;;;8.29;100.00
16120;BME280;12670;53.502;10.252;2023-02-13T07:03:54;103425.19;;;8.29;100.00
16120;BME280;12670;53.502;10.252;2023-02-13T07:06:57;103428.72;;;8.30;100.00
16120;BME280;12670;53.502;10.252;2023-02-13T07:10:00;103434.00;;;8.30;100.00
16120;BME280;12670;53.502;10.252;2023-02-13T07:13:02;103435.69;;;8.23;100.00
16120;BME280;12670;53.502;10.252;2023-02-13T07:16:08;103436.66;;;8.28;100.00
16120;BME280;12670;53.502;10.252;2023-02-13T07:19:10;103436.66;;;8.28;100.00
16120;BME280;12670;53.502;10.252;2023-02-13T07:22:13;103440.19;;;8.31;100.00
16120;BME280;12670;53.502;10.252;2023-02-13T07:25:16;103445.41;;;8.26;100.00
16120;BME280;12670;53.502;10.252;2023-02-13T07:28:19;103441.94;;;8.32;100.00
16120;BME280;12670;53.502;10.252;2023-02-13T07:31:23;103440.31;;;8.40;100.00
16120;BME280;12670;53.502;10.252;2023-02-13T07:34:25;103435.78;;;8.31;100.00
16120;BME280;12670;53.502;10.252;2023-02-13T07:37:28;103447.28;;;8.35;100.00
16120;BME280;12670;53.502;10.252;2023-02-13T07:40:31;103452.69;;;8.41;100.00
16120;BME280;12670;53.502;10.252;2023-02-13T07:43:34;103460.63;;;8.41;100.00
16120;BME280;12670;53.502;10.252;2023-02-13T07:46:38;103454.44;;;8.42;100.00
16120;BME280;12670;53.502;10.252;2023-02-13T07:49:41;103451.66;;;8.31;100.00
16120;BME280;12670;53.502;10.252;2023-02-13T07:52:52;103454.50;;;8.45;100.00
16120;BME280;12670;53.502;10.252;2023-02-13T07:55:54;103460.63;;;8.41;100.00
16120;BME280;12670;53.502;10.252;2023-02-13T07:58:57;103458.94;;;8.49;100.00
16120;BME280;12670;53.502;10.252;2023-02-13T08:02:01;103464.09;;;8.37;100.00
16120;BME280;12670;53.502;10.252;2023-02-13T08:05:05;103461.34;;;8.31;100.00
16120;BME280;12670;53.502;10.252;2023-02-13T08:08:08;103458.81;;;8.38;100.00
16120;BME280;12670;53.502;10.252;2023-02-13T08:11:21;103461.56;;;8.44;100.00
16120;BME280;12670;53.502;10.252;2023-02-13T08:14:42;103464.22;;;8.49;100.00
16120;BME280;12670;53.502;10.252;2023-02-13T08:17:46;103468.69;;;8.53;100.00
16120;BME280;12670;53.502;10.252;2023-02-13T08:20:49;103476.63;;;8.53;100.00
16120;BME280;12670;53.502;10.252;2023-02-13T08:23:51;103464.28;;;8.53;100.00
16120;BME280;12670;53.502;10.252;2023-02-13T08:26:54;103466.91;;;8.55;100.00
16120;BME280;12670;53.502;10.252;2023-02-13T08:29:58;103471.22;;;8.44;100.00
16120;BME280;12670;53.502;10.252;2023-02-13T08:33:03;103466.03;;;8.54;100.00
16120;BME280;12670;53.502;10.252;2023-02-13T08:36:06;103464.34;;;8.60;100.00
16120;BME280;12670;53.502;10.252;2023-02-13T08:39:09;103461.69;;;8.61;100.00
16120;BME280;12670;53.502;10.252;2023-02-13T08:42:12;103461.69;;;8.61;100.00
16120;BME280;12670;53.502;10.252;2023-02-13T08:45:17;103473.16;;;8.60;100.00
16120;BME280;12670;53.502;10.252;2023-02-13T08:48:20;103474.03;;;8.61;100.00
16120;BME280;12670;53.502;10.252;2023-02-13T08:51:23;103470.56;;;8.66;100.00
16120;BME280;12670;53.502;10.252;2023-02-13T08:54:26;103474.16;;;8.71;100.00
16120;BME280;12670;53.502;10.252;2023-02-13T08:57:29;103472.38;;;8.69;100.00
16120;BME280;12670;53.502;10.252;2023-02-13T09:00:32;103474.16;;;8.71;100.00
16120;BME280;12670;53.502;10.252;2023-02-13T09:03:36;103472.44;;;8.76;100.00
16120;BME280;12670;53.502;10.252;2023-02-13T09:06:39;103472.41;;;8.73;100.00
16120;BME280;12670;53.502;10.252;2023-02-13T09:09:41;103466.25;;;8.74;100.00
16120;BME280;12670;53.502;10.252;2023-02-13T09:12:51;103463.56;;;8.71;100.00
16120;BME280;12670;53.502;10.252;2023-02-13T09:15:53;103464.41;;;8.67;100.00
16120;BME280;12670;53.502;10.252;2023-02-13T09:18:58;103461.88;;;8.79;100.00
16120;BME280;12670;53.502;10.252;2023-02-13T09:22:00;103459.19;;;8.76;100.00
16120;BME280;12670;53.502;10.252;2023-02-13T09:25:03;103458.31;;;8.74;100.00
16120;BME280;12670;53.502;10.252;2023-02-13T09:28:07;103463.66;;;8.84;100.00
16120;BME280;12670;53.502;10.252;2023-02-13T09:31:12;103468.97;;;8.84;100.00
16120;BME280;12670;53.502;10.252;2023-02-13T09:34:17;103471.59;;;8.80;100.00
16120;BME280;12670;53.502;10.252;2023-02-13T09:37:19;103482.16;;;8.77;100.00
16120;BME280;12670;53.502;10.252;2023-02-13T09:40:26;103479.59;;;8.87;100.00
16120;BME280;12670;53.502;10.252;2023-02-13T09:43:32;103476.91;;;8.82;100.00
16120;BME280;12670;53.502;10.252;2023-02-13T09:46:38;103469.91;;;8.89;100.00
16120;BME280;12670;53.502;10.252;2023-02-13T09:49:46;103473.38;;;8.83;100.00
16120;BME280;12670;53.502;10.252;2023-02-13T09:52:52;103474.31;;;8.88;100.00
16120;BME280;12670;53.502;10.252;2023-02-13T09:56:02;103465.53;;;8.94;100.00
16120;BME280;12670;53.502;10.252;2023-02-13T09:59:19;103472.66;;;9.01;100.00
16120;BME280;12670;53.502;10.252;2023-02-13T10:02:40;103467.28;;;8.92;100.00
16120;BME280;12670;53.502;10.252;2023-02-13T10:05:52;103460.25;;;8.95;100.00
16120;BME280;12670;53.502;10.252;2023-02-13T10:09:05;103470.00;;;8.98;100.00
16120;BME280;12670;53.502;10.252;2023-02-13T10:12:25;103464.66;;;8.92;100.00
16120;BME280;12670;53.502;10.252;2023-02-13T10:15:36;103459.41;;;9.02;100.00
16120;BME280;12670;53.502;10.252;2023-02-13T10:18:48;103455.03;;;9.03;100.00
16120;BME280;12670;53.502;10.252;2023-02-13T10:21:57;103449.59;;;8.86;100.00
16120;BME280;12670;53.502;10.252;2023-02-13T10:25:03;103455.88;;;9.00;100.00
16120;BME280;12670;53.502;10.252;2023-02-13T10:28:11;103451.41;;;8.96;100.00
16120;BME280;12670;53.502;10.252;2023-02-13T10:31:18;103445.28;;;9.00;100.00
16120;BME280;12670;53.502;10.252;2023-02-13T10:34:26;103454.78;;;8.78;100.00
16120;BME280;12670;53.502;10.252;2023-02-13T10:37:31;103453.13;;;8.90;100.00
16120;BME280;12670;53.502;10.252;2023-02-13T10:40:36;103462.00;;;8.92;100.00
16120;BME280;12670;53.502;10.252;2023-02-13T10:43:47;103463.88;;;9.05;100.00
16120;BME280;12670;53.502;10.252;2023-02-13T10:46:59;103457.59;;;8.92;100.00
16120;BME280;12670;53.502;10.252;2023-02-13T10:50:13;103462.09;;;9.04;100.00
16120;BME280;12670;53.502;10.252;2023-02-13T10:53:27;103458.66;;;9.17;100.00
16120;BME280;12670;53.502;10.252;2023-02-13T10:56:38;103456.91;;;9.19;100.00
16120;BME280;12670;53.502;10.252;2023-02-13T10:59:51;103448.81;;;8.99;100.00
16120;BME280;12670;53.502;10.252;2023-02-13T11:02:58;103457.72;;;9.12;100.00
16120;BME280;12670;53.502;10.252;2023-02-13T11:06:05;103459.59;;;9.24;100.00
16120;BME280;12670;53.502;10.252;2023-02-13T11:09:10;103452.47;;;9.20;100.00
16120;BME280;12670;53.502;10.252;2023-02-13T11:12:25;103456.06;;;9.23;100.00
16120;BME280;12670;53.502;10.252;2023-02-13T11:15:29;103459.50;;;9.13;100.00
16120;BME280;12670;53.502;10.252;2023-02-13T11:18:33;103447.13;;;9.11;100.00
16120;BME280;12670;53.502;10.252;2023-02-13T11:21:37;103446.91;;;8.85;100.00
16120;BME280;12670;53.502;10.252;2023-02-13T11:24:50;103442.63;;;9.02;100.00
16120;BME280;12670;53.502;10.252;2023-02-13T11:28:06;103444.34;;;8.97;100.00
16120;BME280;12670;53.502;10.252;2023-02-13T11:31:14;103438.38;;;9.22;100.00
16120;BME280;12670;53.502;10.252;2023-02-13T11:34:24;103444.66;;;9.37;100.00
16120;BME280;12670;53.502;10.252;2023-02-13T11:37:28;103442.72;;;9.14;100.00
16120;BME280;12670;53.502;10.252;2023-02-13T11:40:33;103442.75;;;9.17;100.00
16120;BME280;12670;53.502;10.252;2023-02-13T11:43:43;103445.50;;;9.26;100.00
16120;BME280;12670;53.502;10.252;2023-02-13T11:46:48;103448.84;;;9.07;100.00
16120;BME280;12670;53.502;10.252;2023-02-13T11:49:51;103450.78;;;9.26;100.00
16120;BME280;12670;53.502;10.252;2023-02-13T11:52:56;103445.47;;;9.25;100.00
16120;BME280;12670;53.502;10.252;2023-02-13T11:56:08;103437.44;;;9.14;100.00
16120;BME280;12670;53.502;10.252;2023-02-13T11:59:12;103436.63;;;9.23;100.00
16120;BME280;12670;53.502;10.252;2023-02-13T12:02:17;103435.81;;;9.34;100.00
16120;BME280;12670;53.502;10.252;2023-02-13T12:05:22;103429.59;;;9.29;100.00
16120;BME280;12670;53.502;10.252;2023-02-13T12:08:25;103435.84;;;9.44;100.00
16120;BME280;12670;53.502;10.252;2023-02-13T12:11:36;103429.72;;;9.45;99.75
16120;BME280;12670;53.502;10.252;2023-02-13T12:14:42;103433.19;;;9.41;100.00
16120;BME280;12670;53.502;10.252;2023-02-13T12:17:48;103427.03;;;9.42;99.28
16120;BME280;12670;53.502;10.252;2023-02-13T12:21:01;103427.97;;;9.50;100.00
16120;BME280;12670;53.502;10.252;2023-02-13T12:24:17;103424.44;;;9.54;100.00
16120;BME280;12670;53.502;10.252;2023-02-13T12:27:29;103427.06;;;9.48;99.38
16120;BME280;12670;53.502;10.252;2023-02-13T12:30:57;103423.44;;;9.37;99.84
16120;BME280;12670;53.502;10.252;2023-02-13T12:34:46;103427.06;;;9.49;98.64
16120;BME280;12670;53.502;10.252;2023-02-13T12:38:02;103419.00;;;9.26;98.04
16120;BME280;12670;53.502;10.252;2023-02-13T12:41:16;103411.91;;;9.24;98.55
16120;BME280;12670;53.502;10.252;2023-02-13T12:44:50;103410.94;;;9.11;97.98
16120;BME280;12670;53.502;10.252;2023-02-13T12:48:12;103397.63;;;8.99;99.21
16120;BME280;12670;53.502;10.252;2023-02-13T12:51:25;103405.59;;;9.05;97.36
16120;BME280;12670;53.502;10.252;2023-02-13T12:54:43;103410.13;;;9.26;98.62
16120;BME280;12670;53.502;10.252;2023-02-13T12:57:55;103412.84;;;9.37;98.08
16120;BME280;12670;53.502;10.252;2023-02-13T13:01:13;103413.81;;;9.45;95.13
16120;BME280;12670;53.502;10.252;2023-02-13T13:04:24;103406.72;;;9.48;94.24
16120;BME280;12670;53.502;10.252;2023-02-13T13:07:56;103405.75;;;9.29;94.17
16120;BME280;12670;53.502;10.252;2023-02-13T13:11:16;103409.28;;;9.28;94.49
16120;BME280;12670;53.502;10.252;2023-02-13T13:14:31;103410.97;;;9.17;95.18
16120;BME280;12670;53.502;10.252;2023-02-13T13:17:48;103410.00;;;9.07;94.56
16120;BME280;12670;53.502;10.252;2023-02-13T13:21:03;103403.97;;;9.28;95.16
16120;BME280;12670;53.502;10.252;2023-02-13T13:24:22;103405.84;;;9.45;94.09
16120;BME280;12670;53.502;10.252;2023-02-13T13:27:29;103401.34;;;9.31;94.43
16120;BME280;12670;53.502;10.252;2023-02-13T13:30:34;103391.59;;;9.23;94.57
16120;BME280;12670;53.502;10.252;2023-02-13T13:33:42;103391.72;;;9.47;93.93
16120;BME280;12670;53.502;10.252;2023-02-13T13:36:50;103391.72;;;9.47;92.09
16120;BME280;12670;53.502;10.252;2023-02-13T13:39:59;103383.72;;;9.33;95.08
16120;BME280;12670;53.502;10.252;2023-02-13T13:43:16;103385.28;;;9.05;94.11
16120;BME280;12670;53.502;10.252;2023-02-13T13:46:30;103388.16;;;9.41;95.45
16120;BME280;12670;53.502;10.252;2023-02-13T13:49:44;103384.47;;;9.20;93.77
16120;BME280;12670;53.502;10.252;2023-02-13T13:53:05;103381.81;;;9.14;94.65
16120;BME280;12670;53.502;10.252;2023-02-13T13:56:08;103384.53;;;9.23;94.39
16120;BME280;12670;53.502;10.252;2023-02-13T13:59:16;103386.34;;;9.37;93.87
16120;BME280;12670;53.502;10.252;2023-02-13T14:02:36;103380.94;;;9.15;95.63
16120;BME280;12670;53.502;10.252;2023-02-13T14:06:03;103391.59;;;9.21;95.49
16120;BME280;12670;53.502;10.252;2023-02-13T14:12:45;103385.47;;;9.33;94.16
16120;BME280;12670;53.502;10.252;2023-02-13T14:15:50;103388.13;;;9.38;94.89
16120;BME280;12670;53.502;10.252;2023-02-13T14:18:55;103391.63;;;9.27;93.87
16120;BME280;12670;53.502;10.252;2023-02-13T14:22:30;103391.66;;;9.33;93.75
16120;BME280;12670;53.502;10.252;2023-02-13T14:25:34;103393.31;;;9.16;93.31
16120;BME280;12670;53.502;10.252;2023-02-13T14:28:39;103388.94;;;9.26;93.41
16120;BME280;12670;53.502;10.252;2023-02-13T14:31:49;103391.56;;;9.15;92.11
16120;BME280;12670;53.502;10.252;2023-02-13T14:34:57;103388.09;;;9.28;93.22
16120;BME280;12670;53.502;10.252;2023-02-13T14:38:04;103383.66;;;9.29;93.69
16120;BME280;12670;53.502;10.252;2023-02-13T14:44:45;103390.69;;;9.25;93.33
16120;BME280;12670;53.502;10.252;2023-02-13T14:47:51;103391.69;;;9.43;91.74
16120;BME280;12670;53.502;10.252;2023-02-13T14:50:57;103387.31;;;9.45;92.85
16120;BME280;12670;53.502;10.252;2023-02-13T14:54:07;103390.75;;;9.28;91.27
16120;BME280;12670;53.502;10.252;2023-02-13T14:57:16;103383.72;;;9.37;91.27
16120;BME280;12670;53.502;10.252;2023-02-13T15:00:24;103376.53;;;9.17;90.37
16120;BME280;12670;53.502;10.252;2023-02-13T15:03:30;103369.31;;;8.93;89.60
16120;BME280;12670;53.502;10.252;2023-02-13T15:06:38;103371.78;;;8.70;91.46
16120;BME280;12670;53.502;10.252;2023-02-13T15:09:48;103367.56;;;8.94;89.19
16120;BME280;12670;53.502;10.252;2023-02-13T15:12:56;103376.47;;;9.05;89.40
16120;BME280;12670;53.502;10.252;2023-02-13T15:16:01;103371.28;;;9.23;89.97
16120;BME280;12670;53.502;10.252;2023-02-13T15:19:04;103366.81;;;9.15;90.42
16120;BME280;12670;53.502;10.252;2023-02-13T15:22:17;103354.50;;;9.24;90.71
16120;BME280;12670;53.502;10.252;2023-02-13T15:25:25;103356.22;;;9.16;89.16
16120;BME280;12670;53.502;10.252;2023-02-13T15:28:32;103366.69;;;8.95;90.06
16120;BME280;12670;53.502;10.252;2023-02-13T15:31:35;103363.84;;;8.69;90.56
16120;BME280;12670;53.502;10.252;2023-02-13T15:34:45;103368.41;;;8.87;89.63
16120;BME280;12670;53.502;10.252;2023-02-13T15:37:48;103357.81;;;8.87;89.03
16120;BME280;12670;53.502;10.252;2023-02-13T15:40:54;103354.22;;;8.81;90.16
16120;BME280;12670;53.502;10.252;2023-02-13T15:43:59;103347.94;;;8.64;89.80
16120;BME280;12670;53.502;10.252;2023-02-13T15:47:04;103355.13;;;8.84;90.15
16120;BME280;12670;53.502;10.252;2023-02-13T15:50:15;103347.25;;;8.96;90.36
16120;BME280;12670;53.502;10.252;2023-02-13T15:53:18;103349.88;;;8.88;90.03
16120;BME280;12670;53.502;10.252;2023-02-13T15:56:23;103361.34;;;8.86;89.85
16120;BME280;12670;53.502;10.252;2023-02-13T15:59:30;103344.34;;;8.61;89.36
16120;BME280;12670;53.502;10.252;2023-02-13T16:02:39;103341.47;;;8.35;91.15
16120;BME280;12670;53.502;10.252;2023-02-13T16:05:44;103340.91;;;8.71;90.77
16120;BME280;12670;53.502;10.252;2023-02-13T16:08:51;103336.63;;;8.87;89.42
16120;BME280;12670;53.502;10.252;2023-02-13T16:11:59;103320.81;;;8.97;89.63
16120;BME280;12670;53.502;10.252;2023-02-13T16:15:03;103334.91;;;8.92;88.83
16120;BME280;12670;53.502;10.252;2023-02-13T16:18:17;103330.44;;;8.91;88.76
16120;BME280;12670;53.502;10.252;2023-02-13T16:21:21;103337.50;;;8.87;89.46
16120;BME280;12670;53.502;10.252;2023-02-13T16:24:25;103332.97;;;8.69;88.98